sensor_id;sensor_type;location;lat;lon;timestamp;temperature;humidity
7307;DHT22;3694;48.732;9.248;2023-05-16T00:02:19;9.80;99.90
7307;DHT22;3694;48.732;9.248;2023-05-16T00:04:44;9.50;99.90
7307;DHT22;3694;48.732;9.248;2023-05-16T00:07:10;9.50;99.90
7307;DHT22;3694;48.732;9.248;2023-05-16T00:09:36;9.50;99.90
7307;DHT22;3694;48.732;9.248;2023-05-16T00:12:02;9.40;99.90
7307;DHT22;3694;48.732;9.248;2023-05-16T00:14:28;9.40;99.90
7307;DHT22;3694;48.732;9.248;2023-05-16T00:16:54;9.40;99.90
7307;DHT22;3694;48.732;9.248;2023-05-16T00:19:22;9.40;99.90
7307;DHT22;3694;48.732;9.248;2023-05-16T00:21:48;9.60;99.90
7307;DHT22;3694;48.732;9.248;2023-05-16T00:24:13;9.60;99.90
7307;DHT22;3694;48.732;9.248;2023-05-16T00:26:39;9.60;99.90
7307;DHT22;3694;48.732;9.248;2023-05-16T00:29:05;9.70;99.90
7307;DHT22;3694;48.732;9.248;2023-05-16T00:31:31;9.40;99.90
7307;DHT22;3694;48.732;9.248;2023-05-16T00:33:56;9.40;99.90
7307;DHT22;3694;48.732;9.248;2023-05-16T00:36:22;9.40;99.90
7307;DHT22;3694;48.732;9.248;2023-05-16T00:38:47;9.40;99.90
7307;DHT22;3694;48.732;9.248;2023-05-16T00:41:13;9.40;99.90
7307;DHT22;3694;48.732;9.248;2023-05-16T00:43:39;9.40;99.90
7307;DHT22;3694;48.732;9.248;2023-05-16T00:46:04;9.30;99.90
7307;DHT22;3694;48.732;9.248;2023-05-16T00:48:31;9.20;99.90
7307;DHT22;3694;48.732;9.248;2023-05-16T00:50:56;9.10;99.90
7307;DHT22;3694;48.732;9.248;2023-05-16T00:53:23;9.00;99.90
7307;DHT22;3694;48.732;9.248;2023-05-16T00:55:49;9.00;99.90
7307;DHT22;3694;48.732;9.248;2023-05-16T00:58:15;8.90;99.90
7307;DHT22;3694;48.732;9.248;2023-05-16T01:00:42;8.90;99.90
7307;DHT22;3694;48.732;9.248;2023-05-16T01:03:08;8.90;99.90
7307;DHT22;3694;48.732;9.248;2023-05-16T01:05:34;8.80;99.90
7307;DHT22;3694;48.732;9.248;2023-05-16T01:07:59;8.80;99.90
7307;DHT22;3694;48.732;9.248;2023-05-16T01:10:31;8.80;99.90
7307;DHT22;3694;48.732;9.248;2023-05-16T01:13:17;8.80;99.90
7307;DHT22;3694;48.732;9.248;2023-05-16T01:15:58;8.80;99.90
7307;DHT22;3694;48.732;9.248;2023-05-16T01:18:39;8.80;99.90
7307;DHT22;3694;48.732;9.248;2023-05-16T01:21:18;8.70;99.90
7307;DHT22;3694;48.732;9.248;2023-05-16T01:24:02;8.70;99.90
7307;DHT22;3694;48.732;9.248;2023-05-16T01:26:28;8.70;99.90
7307;DHT22;3694;48.732;9.248;2023-05-16T01:28:55;8.70;99.90
7307;DHT22;3694;48.732;9.248;2023-05-16T01:31:22;8.90;99.90
7307;DHT22;3694;48.732;9.248;2023-05-16T01:33:48;9.00;99.90
7307;DHT22;3694;48.732;9.248;2023-05-16T01:36:23;9.10;99.90
7307;DHT22;3694;48.732;9.248;2023-05-16T01:39:05;9.30;99.90
7307;DHT22;3694;48.732;9.248;2023-05-16T01:42:02;9.50;99.90
7307;DHT22;3694;48.732;9.248;2023-05-16T01:44:36;9.70;99.90
7307;DHT22;3694;48.732;9.248;2023-05-16T01:47:10;9.80;99.90
7307;DHT22;3694;48.732;9.248;2023-05-16T01:49:49;9.80;99.90
7307;DHT22;3694;48.732;9.248;2023-05-16T01:52:21;9.90;99.90
7307;DHT22;3694;48.732;9.248;2023-05-16T01:54:52;9.90;99.90
7307;DHT22;3694;48.732;9.248;2023-05-16T01:57:23;10.00;99.90
7307;DHT22;3694;48.732;9.248;2023-05-16T01:59:50;10.10;99.90
7307;DHT22;3694;48.732;9.248;2023-05-16T02:02:19;10.00;99.90
7307;DHT22;3694;48.732;9.248;2023-05-16T02:04:45;10.00;99.90
7307;DHT22;3694;48.732;9.248;2023-05-16T02:07:11;10.10;99.90
7307;DHT22;3694;48.732;9.248;2023-05-16T02:09:38;10.00;99.90
7307;DHT22;3694;48.732;9.248;2023-05-16T02:12:04;10.00;99.90
7307;DHT22;3694;48.732;9.248;2023-05-16T02:14:32;10.00;99.90
7307;DHT22;3694;48.732;9.248;2023-05-16T02:16:58;10.00;99.90
7307;DHT22;3694;48.732;9.248;2023-05-16T02:19:23;10.00;99.90
7307;DHT22;3694;48.732;9.248;2023-05-16T02:21:49;10.10;99.90
7307;DHT22;3694;48.732;9.248;2023-05-16T02:24:15;10.10;99.90
7307;DHT22;3694;48.732;9.248;2023-05-16T02:26:40;10.10;99.90
7307;DHT22;3694;48.732;9.248;2023-05-16T02:29:06;10.10;99.90
7307;DHT22;3694;48.732;9.248;2023-05-16T02:31:32;10.10;99.90
7307;DHT22;3694;48.732;9.248;2023-05-16T02:33:59;10.10;99.90
7307;DHT22;3694;48.732;9.248;2023-05-16T02:36:25;10.10;99.90
7307;DHT22;3694;48.732;9.248;2023-05-16T02:38:50;10.10;99.90
7307;DHT22;3694;48.732;9.248;2023-05-16T02:41:16;10.00;99.90
7307;DHT22;3694;48.732;9.248;2023-05-16T02:43:42;10.00;99.90
7307;DHT22;3694;48.732;9.248;2023-05-16T02:46:25;10.10;99.90
7307;DHT22;3694;48.732;9.248;2023-05-16T02:48:52;10.10;99.90
7307;DHT22;3694;48.732;9.248;2023-05-16T02:51:20;10.00;99.90
7307;DHT22;3694;48.732;9.248;2023-05-16T02:53:47;10.10;99.90
7307;DHT22;3694;48.732;9.248;2023-05-16T02:56:12;10.10;99.90
7307;DHT22;3694;48.732;9.248;2023-05-16T02:58:38;10.10;99.90
7307;DHT22;3694;48.732;9.248;2023-05-16T03:01:06;10.10;99.90
7307;DHT22;3694;48.732;9.248;2023-05-16T03:03:32;10.10;99.90
7307;DHT22;3694;48.732;9.248;2023-05-16T03:05:59;10.10;99.90
7307;DHT22;3694;48.732;9.248;2023-05-16T03:08:25;10.10;99.90
7307;DHT22;3694;48.732;9.248;2023-05-16T03:10:51;10.20;99.90
7307;DHT22;3694;48.732;9.248;2023-05-16T03:13:16;10.30;99.90
7307;DHT22;3694;48.732;9.248;2023-05-16T03:15:42;10.10;99.90
7307;DHT22;3694;48.732;9.248;2023-05-16T03:18:08;10.10;99.90
7307;DHT22;3694;48.732;9.248;2023-05-16T03:20:33;10.00;99.90
7307;DHT22;3694;48.732;9.248;2023-05-16T03:22:59;10.00;99.90
7307;DHT22;3694;48.732;9.248;2023-05-16T03:25:24;10.00;99.90
7307;DHT22;3694;48.732;9.248;2023-05-16T03:27:50;10.00;99.90
7307;DHT22;3694;48.732;9.248;2023-05-16T03:30:16;10.00;99.90
7307;DHT22;3694;48.732;9.248;2023-05-16T03:32:44;9.90;99.90
7307;DHT22;3694;48.732;9.248;2023-05-16T03:35:09;9.90;99.90
7307;DHT22;3694;48.732;9.248;2023-05-16T03:37:38;9.90;99.90
7307;DHT22;3694;48.732;9.248;2023-05-16T03:40:04;9.80;99.90
7307;DHT22;3694;48.732;9.248;2023-05-16T03:42:30;9.80;99.90
7307;DHT22;3694;48.732;9.248;2023-05-16T03:44:56;9.70;99.90
7307;DHT22;3694;48.732;9.248;2023-05-16T03:47:22;9.60;99.90
7307;DHT22;3694;48.732;9.248;2023-05-16T03:49:47;9.50;99.90
7307;DHT22;3694;48.732;9.248;2023-05-16T03:52:13;9.50;99.90
7307;DHT22;3694;48.732;9.248;2023-05-16T03:54:38;9.50;99.90
7307;DHT22;3694;48.732;9.248;2023-05-16T03:57:05;9.50;99.90
7307;DHT22;3694;48.732;9.248;2023-05-16T03:59:30;9.40;99.90
7307;DHT22;3694;48.732;9.248;2023-05-16T04:01:56;9.40;99.90
7307;DHT22;3694;48.732;9.248;2023-05-16T04:04:21;9.30;99.90
7307;DHT22;3694;48.732;9.248;2023-05-16T04:06:47;9.30;99.90
7307;DHT22;3694;48.732;9.248;2023-05-16T04:09:12;9.40;99.90
7307;DHT22;3694;48.732;9.248;2023-05-16T04:11:38;9.40;99.90
7307;DHT22;3694;48.732;9.248;2023-05-16T04:14:03;9.50;99.90
7307;DHT22;3694;48.732;9.248;2023-05-16T04:16:29;9.60;99.90
7307;DHT22;3694;48.732;9.248;2023-05-16T04:18:55;9.60;99.90
7307;DHT22;3694;48.732;9.248;2023-05-16T04:21:21;9.70;99.90
7307;DHT22;3694;48.732;9.248;2023-05-16T04:23:47;9.70;99.90
7307;DHT22;3694;48.732;9.248;2023-05-16T04:26:13;9.70;99.90
7307;DHT22;3694;48.732;9.248;2023-05-16T04:28:39;9.80;99.90
7307;DHT22;3694;48.732;9.248;2023-05-16T04:31:05;9.90;99.90
7307;DHT22;3694;48.732;9.248;2023-05-16T04:33:32;10.00;99.90
7307;DHT22;3694;48.732;9.248;2023-05-16T04:35:58;10.10;99.90
7307;DHT22;3694;48.732;9.248;2023-05-16T04:38:25;10.20;99.90
7307;DHT22;3694;48.732;9.248;2023-05-16T04:40:50;10.30;99.90
7307;DHT22;3694;48.732;9.248;2023-05-16T04:43:17;10.40;99.90
7307;DHT22;3694;48.732;9.248;2023-05-16T04:45:43;10.50;99.90
7307;DHT22;3694;48.732;9.248;2023-05-16T04:48:09;10.60;99.90
7307;DHT22;3694;48.732;9.248;2023-05-16T04:50:34;10.70;99.90
7307;DHT22;3694;48.732;9.248;2023-05-16T04:53:00;10.70;99.90
7307;DHT22;3694;48.732;9.248;2023-05-16T04:55:26;10.80;99.90
7307;DHT22;3694;48.732;9.248;2023-05-16T04:57:51;10.80;99.90
7307;DHT22;3694;48.732;9.248;2023-05-16T05:00:17;10.90;99.90
7307;DHT22;3694;48.732;9.248;2023-05-16T05:02:42;10.90;99.90
7307;DHT22;3694;48.732;9.248;2023-05-16T05:05:08;10.90;99.90
7307;DHT22;3694;48.732;9.248;2023-05-16T05:07:34;11.00;99.90
7307;DHT22;3694;48.732;9.248;2023-05-16T05:10:00;11.00;99.90
7307;DHT22;3694;48.732;9.248;2023-05-16T05:12:26;11.10;99.90
7307;DHT22;3694;48.732;9.248;2023-05-16T05:14:52;11.20;99.90
7307;DHT22;3694;48.732;9.248;2023-05-16T05:17:19;11.20;99.90
7307;DHT22;3694;48.732;9.248;2023-05-16T05:19:45;11.30;99.90
7307;DHT22;3694;48.732;9.248;2023-05-16T05:22:11;11.30;99.90
7307;DHT22;3694;48.732;9.248;2023-05-16T05:24:36;11.40;99.90
7307;DHT22;3694;48.732;9.248;2023-05-16T05:27:02;11.40;99.90
7307;DHT22;3694;48.732;9.248;2023-05-16T05:29:28;11.50;99.90
7307;DHT22;3694;48.732;9.248;2023-05-16T05:31:54;11.40;99.90
7307;DHT22;3694;48.732;9.248;2023-05-16T05:34:19;11.40;99.90
7307;DHT22;3694;48.732;9.248;2023-05-16T05:36:45;11.40;99.90
7307;DHT22;3694;48.732;9.248;2023-05-16T05:39:11;11.50;99.90
7307;DHT22;3694;48.732;9.248;2023-05-16T05:41:37;11.50;99.90
7307;DHT22;3694;48.732;9.248;2023-05-16T05:44:02;11.60;99.90
7307;DHT22;3694;48.732;9.248;2023-05-16T05:46:28;11.60;99.90
7307;DHT22;3694;48.732;9.248;2023-05-16T05:48:54;11.50;99.90
7307;DHT22;3694;48.732;9.248;2023-05-16T05:51:19;11.40;99.90
7307;DHT22;3694;48.732;9.248;2023-05-16T05:53:45;11.30;99.90
7307;DHT22;3694;48.732;9.248;2023-05-16T05:56:12;11.20;99.90
7307;DHT22;3694;48.732;9.248;2023-05-16T05:58:38;11.20;99.90
7307;DHT22;3694;48.732;9.248;2023-05-16T06:01:03;11.20;99.90
7307;DHT22;3694;48.732;9.248;2023-05-16T06:03:29;11.30;99.90
7307;DHT22;3694;48.732;9.248;2023-05-16T06:05:55;11.20;99.90
7307;DHT22;3694;48.732;9.248;2023-05-16T06:08:20;11.40;99.90
7307;DHT22;3694;48.732;9.248;2023-05-16T06:10:46;11.50;99.90
7307;DHT22;3694;48.732;9.248;2023-05-16T06:13:12;11.60;99.90
7307;DHT22;3694;48.732;9.248;2023-05-16T06:15:37;11.70;99.90
7307;DHT22;3694;48.732;9.248;2023-05-16T06:18:03;11.80;99.90
7307;DHT22;3694;48.732;9.248;2023-05-16T06:20:28;11.90;99.90
7307;DHT22;3694;48.732;9.248;2023-05-16T06:22:54;11.90;99.90
7307;DHT22;3694;48.732;9.248;2023-05-16T06:25:19;12.00;99.90
7307;DHT22;3694;48.732;9.248;2023-05-16T06:27:45;12.00;99.90
7307;DHT22;3694;48.732;9.248;2023-05-16T06:30:11;12.00;99.90
7307;DHT22;3694;48.732;9.248;2023-05-16T06:32:36;12.00;99.90
7307;DHT22;3694;48.732;9.248;2023-05-16T06:35:02;11.90;99.90
7307;DHT22;3694;48.732;9.248;2023-05-16T06:37:28;11.90;99.90
7307;DHT22;3694;48.732;9.248;2023-05-16T06:39:53;11.90;99.90
7307;DHT22;3694;48.732;9.248;2023-05-16T06:42:19;12.00;99.90
7307;DHT22;3694;48.732;9.248;2023-05-16T06:44:45;12.00;99.90
7307;DHT22;3694;48.732;9.248;2023-05-16T06:47:11;12.00;99.90
7307;DHT22;3694;48.732;9.248;2023-05-16T06:49:36;11.90;99.90
7307;DHT22;3694;48.732;9.248;2023-05-16T06:52:02;11.90;99.90
7307;DHT22;3694;48.732;9.248;2023-05-16T06:54:27;11.90;99.90
7307;DHT22;3694;48.732;9.248;2023-05-16T06:56:53;12.00;99.90
7307;DHT22;3694;48.732;9.248;2023-05-16T06:59:18;12.00;99.90
7307;DHT22;3694;48.732;9.248;2023-05-16T07:01:44;12.00;99.90
7307;DHT22;3694;48.732;9.248;2023-05-16T07:04:10;12.10;99.90
7307;DHT22;3694;48.732;9.248;2023-05-16T07:06:35;12.00;99.90
7307;DHT22;3694;48.732;9.248;2023-05-16T07:09:01;11.90;99.90
7307;DHT22;3694;48.732;9.248;2023-05-16T07:11:26;11.90;99.90
7307;DHT22;3694;48.732;9.248;2023-05-16T07:13:52;11.80;99.90
7307;DHT22;3694;48.732;9.248;2023-05-16T07:16:17;11.90;99.90
7307;DHT22;3694;48.732;9.248;2023-05-16T07:18:43;12.00;99.90
7307;DHT22;3694;48.732;9.248;2023-05-16T07:21:08;12.00;99.90
7307;DHT22;3694;48.732;9.248;2023-05-16T07:23:34;12.20;99.90
7307;DHT22;3694;48.732;9.248;2023-05-16T07:26:00;12.20;99.90
7307;DHT22;3694;48.732;9.248;2023-05-16T07:28:25;12.40;99.90
7307;DHT22;3694;48.732;9.248;2023-05-16T07:30:51;12.60;99.90
7307;DHT22;3694;48.732;9.248;2023-05-16T07:33:16;12.70;99.90
7307;DHT22;3694;48.732;9.248;2023-05-16T07:35:42;12.90;99.90
7307;DHT22;3694;48.732;9.248;2023-05-16T07:38:07;12.90;99.90
7307;DHT22;3694;48.732;9.248;2023-05-16T07:40:33;12.80;99.90
7307;DHT22;3694;48.732;9.248;2023-05-16T07:42:58;12.80;99.90
7307;DHT22;3694;48.732;9.248;2023-05-16T07:45:24;12.90;99.90
7307;DHT22;3694;48.732;9.248;2023-05-16T07:47:50;13.20;99.90
7307;DHT22;3694;48.732;9.248;2023-05-16T07:50:15;13.20;99.90
7307;DHT22;3694;48.732;9.248;2023-05-16T07:52:41;13.30;99.90
7307;DHT22;3694;48.732;9.248;2023-05-16T07:55:07;13.10;99.90
7307;DHT22;3694;48.732;9.248;2023-05-16T07:57:33;13.00;99.90
7307;DHT22;3694;48.732;9.248;2023-05-16T07:59:58;13.10;99.90
7307;DHT22;3694;48.732;9.248;2023-05-16T08:02:24;13.10;99.90
7307;DHT22;3694;48.732;9.248;2023-05-16T08:04:53;13.20;99.90
7307;DHT22;3694;48.732;9.248;2023-05-16T08:07:19;13.30;99.90
7307;DHT22;3694;48.732;9.248;2023-05-16T08:09:44;13.30;99.90
7307;DHT22;3694;48.732;9.248;2023-05-16T08:12:10;13.20;99.90
7307;DHT22;3694;48.732;9.248;2023-05-16T08:14:35;13.30;99.90
7307;DHT22;3694;48.732;9.248;2023-05-16T08:17:01;13.30;99.90
7307;DHT22;3694;48.732;9.248;2023-05-16T08:19:27;13.00;99.90
7307;DHT22;3694;48.732;9.248;2023-05-16T08:21:53;12.90;99.90
7307;DHT22;3694;48.732;9.248;2023-05-16T08:24:19;12.90;99.90
7307;DHT22;3694;48.732;9.248;2023-05-16T08:26:44;12.90;99.90
7307;DHT22;3694;48.732;9.248;2023-05-16T08:29:10;12.80;99.90
7307;DHT22;3694;48.732;9.248;2023-05-16T08:31:35;12.80;99.90
7307;DHT22;3694;48.732;9.248;2023-05-16T08:34:01;12.70;99.90
7307;DHT22;3694;48.732;9.248;2023-05-16T08:36:27;12.60;99.90
7307;DHT22;3694;48.732;9.248;2023-05-16T08:38:54;12.70;99.90
7307;DHT22;3694;48.732;9.248;2023-05-16T08:41:19;12.60;99.90
7307;DHT22;3694;48.732;9.248;2023-05-16T08:43:46;12.60;99.90
7307;DHT22;3694;48.732;9.248;2023-05-16T08:46:12;12.70;99.90
7307;DHT22;3694;48.732;9.248;2023-05-16T08:48:37;12.70;99.90
7307;DHT22;3694;48.732;9.248;2023-05-16T08:51:08;12.80;99.90
7307;DHT22;3694;48.732;9.248;2023-05-16T08:53:44;12.80;99.90
7307;DHT22;3694;48.732;9.248;2023-05-16T08:56:12;12.70;99.90
7307;DHT22;3694;48.732;9.248;2023-05-16T08:58:38;12.50;99.90
7307;DHT22;3694;48.732;9.248;2023-05-16T09:01:05;12.60;99.90
7307;DHT22;3694;48.732;9.248;2023-05-16T09:03:35;12.40;99.90
7307;DHT22;3694;48.732;9.248;2023-05-16T09:06:03;12.20;99.90
7307;DHT22;3694;48.732;9.248;2023-05-16T09:08:30;12.10;99.90
7307;DHT22;3694;48.732;9.248;2023-05-16T09:10:55;12.10;99.90
7307;DHT22;3694;48.732;9.248;2023-05-16T09:13:21;12.00;99.90
7307;DHT22;3694;48.732;9.248;2023-05-16T09:16:07;11.90;99.90
7307;DHT22;3694;48.732;9.248;2023-05-16T09:18:32;11.80;99.90
7307;DHT22;3694;48.732;9.248;2023-05-16T09:20:59;11.80;99.90
7307;DHT22;3694;48.732;9.248;2023-05-16T09:23:24;11.80;99.90
7307;DHT22;3694;48.732;9.248;2023-05-16T09:25:52;11.70;99.90
7307;DHT22;3694;48.732;9.248;2023-05-16T09:28:17;11.60;99.90
7307;DHT22;3694;48.732;9.248;2023-05-16T09:30:45;11.50;99.90
7307;DHT22;3694;48.732;9.248;2023-05-16T09:33:11;11.50;99.90
7307;DHT22;3694;48.732;9.248;2023-05-16T09:35:37;11.50;99.90
7307;DHT22;3694;48.732;9.248;2023-05-16T09:38:03;11.50;99.90
7307;DHT22;3694;48.732;9.248;2023-05-16T09:40:28;11.50;99.90
7307;DHT22;3694;48.732;9.248;2023-05-16T09:43:04;11.60;99.90
7307;DHT22;3694;48.732;9.248;2023-05-16T09:45:31;11.80;99.90
7307;DHT22;3694;48.732;9.248;2023-05-16T09:48:06;11.80;99.90
7307;DHT22;3694;48.732;9.248;2023-05-16T09:50:33;11.90;99.90
7307;DHT22;3694;48.732;9.248;2023-05-16T09:53:00;12.10;99.90
7307;DHT22;3694;48.732;9.248;2023-05-16T09:55:26;11.90;99.90
7307;DHT22;3694;48.732;9.248;2023-05-16T09:57:51;11.90;99.90
7307;DHT22;3694;48.732;9.248;2023-05-16T10:00:17;12.00;99.90
7307;DHT22;3694;48.732;9.248;2023-05-16T10:02:43;12.10;99.90
7307;DHT22;3694;48.732;9.248;2023-05-16T10:05:08;12.20;99.90
7307;DHT22;3694;48.732;9.248;2023-05-16T10:07:34;12.20;99.90
7307;DHT22;3694;48.732;9.248;2023-05-16T10:10:04;12.10;99.90
7307;DHT22;3694;48.732;9.248;2023-05-16T10:12:30;12.20;99.90
7307;DHT22;3694;48.732;9.248;2023-05-16T10:14:56;12.30;99.90
7307;DHT22;3694;48.732;9.248;2023-05-16T10:17:24;12.40;99.90
7307;DHT22;3694;48.732;9.248;2023-05-16T10:19:53;12.30;99.90
7307;DHT22;3694;48.732;9.248;2023-05-16T10:22:19;12.20;99.90
7307;DHT22;3694;48.732;9.248;2023-05-16T10:25:21;12.20;99.90
7307;DHT22;3694;48.732;9.248;2023-05-16T10:27:49;12.30;99.90
7307;DHT22;3694;48.732;9.248;2023-05-16T10:30:16;12.20;99.90
7307;DHT22;3694;48.732;9.248;2023-05-16T10:32:43;12.10;99.90
7307;DHT22;3694;48.732;9.248;2023-05-16T10:35:09;12.10;99.90
7307;DHT22;3694;48.732;9.248;2023-05-16T10:37:35;12.10;99.90
7307;DHT22;3694;48.732;9.248;2023-05-16T10:40:01;12.10;99.90
7307;DHT22;3694;48.732;9.248;2023-05-16T10:42:33;12.30;99.90
7307;DHT22;3694;48.732;9.248;2023-05-16T10:45:18;12.40;99.90
7307;DHT22;3694;48.732;9.248;2023-05-16T10:48:00;12.50;99.90
7307;DHT22;3694;48.732;9.248;2023-05-16T10:50:32;12.80;99.90
7307;DHT22;3694;48.732;9.248;2023-05-16T10:53:20;13.00;99.90
7307;DHT22;3694;48.732;9.248;2023-05-16T10:56:05;13.30;99.90
7307;DHT22;3694;48.732;9.248;2023-05-16T11:01:25;13.20;99.90
7307;DHT22;3694;48.732;9.248;2023-05-16T11:12:02;12.40;99.90
7307;DHT22;3694;48.732;9.248;2023-05-16T11:17:13;12.30;99.90
7307;DHT22;3694;48.732;9.248;2023-05-16T11:24:52;12.20;99.90
7307;DHT22;3694;48.732;9.248;2023-05-16T11:27:26;12.10;99.90
7307;DHT22;3694;48.732;9.248;2023-05-16T11:29:53;11.90;99.90
7307;DHT22;3694;48.732;9.248;2023-05-16T11:32:21;11.80;99.90
7307;DHT22;3694;48.732;9.248;2023-05-16T11:34:47;11.60;99.90
7307;DHT22;3694;48.732;9.248;2023-05-16T11:37:14;11.50;99.90
7307;DHT22;3694;48.732;9.248;2023-05-16T11:39:40;11.50;99.90
7307;DHT22;3694;48.732;9.248;2023-05-16T11:42:06;11.50;99.90
7307;DHT22;3694;48.732;9.248;2023-05-16T11:44:31;11.60;99.90
7307;DHT22;3694;48.732;9.248;2023-05-16T11:46:59;11.40;99.90
7307;DHT22;3694;48.732;9.248;2023-05-16T11:49:26;11.30;99.90
7307;DHT22;3694;48.732;9.248;2023-05-16T11:51:53;11.20;99.90
7307;DHT22;3694;48.732;9.248;2023-05-16T11:54:19;11.10;99.90
7307;DHT22;3694;48.732;9.248;2023-05-16T11:56:45;11.00;99.90
7307;DHT22;3694;48.732;9.248;2023-05-16T11:59:11;10.80;99.90
7307;DHT22;3694;48.732;9.248;2023-05-16T12:01:38;10.70;99.90
7307;DHT22;3694;48.732;9.248;2023-05-16T12:06:33;10.50;99.90
7307;DHT22;3694;48.732;9.248;2023-05-16T12:08:59;10.50;99.90
7307;DHT22;3694;48.732;9.248;2023-05-16T12:11:29;10.50;99.90
7307;DHT22;3694;48.732;9.248;2023-05-16T12:13:54;10.50;99.90
7307;DHT22;3694;48.732;9.248;2023-05-16T12:16:20;10.50;99.90
7307;DHT22;3694;48.732;9.248;2023-05-16T12:18:47;10.50;99.90
7307;DHT22;3694;48.732;9.248;2023-05-16T12:21:13;10.60;99.90
7307;DHT22;3694;48.732;9.248;2023-05-16T12:23:41;10.80;99.90
7307;DHT22;3694;48.732;9.248;2023-05-16T12:26:07;10.90;99.90
7307;DHT22;3694;48.732;9.248;2023-05-16T12:28:33;11.10;99.90
7307;DHT22;3694;48.732;9.248;2023-05-16T12:30:59;11.10;99.90
7307;DHT22;3694;48.732;9.248;2023-05-16T12:33:26;11.20;99.90
7307;DHT22;3694;48.732;9.248;2023-05-16T12:35:52;11.10;99.90
7307;DHT22;3694;48.732;9.248;2023-05-16T12:38:19;11.10;99.90
7307;DHT22;3694;48.732;9.248;2023-05-16T12:40:45;11.00;99.90
7307;DHT22;3694;48.732;9.248;2023-05-16T12:43:21;10.90;99.90
7307;DHT22;3694;48.732;9.248;2023-05-16T12:45:57;10.90;99.90
7307;DHT22;3694;48.732;9.248;2023-05-16T12:48:28;10.90;99.90
7307;DHT22;3694;48.732;9.248;2023-05-16T12:50:55;11.10;99.90
7307;DHT22;3694;48.732;9.248;2023-05-16T12:53:21;11.30;99.90
7307;DHT22;3694;48.732;9.248;2023-05-16T12:55:46;11.50;99.90
7307;DHT22;3694;48.732;9.248;2023-05-16T12:58:12;11.60;99.90
7307;DHT22;3694;48.732;9.248;2023-05-16T13:00:38;11.70;99.90
7307;DHT22;3694;48.732;9.248;2023-05-16T13:03:04;11.80;99.90
7307;DHT22;3694;48.732;9.248;2023-05-16T13:05:30;11.80;99.90
7307;DHT22;3694;48.732;9.248;2023-05-16T13:07:56;11.80;99.90
7307;DHT22;3694;48.732;9.248;2023-05-16T13:10:22;11.90;99.90
7307;DHT22;3694;48.732;9.248;2023-05-16T13:12:47;11.90;99.90
7307;DHT22;3694;48.732;9.248;2023-05-16T13:15:13;12.00;99.90
7307;DHT22;3694;48.732;9.248;2023-05-16T13:17:41;11.90;99.90
7307;DHT22;3694;48.732;9.248;2023-05-16T13:20:09;11.80;99.90
7307;DHT22;3694;48.732;9.248;2023-05-16T13:22:42;11.80;99.90
7307;DHT22;3694;48.732;9.248;2023-05-16T13:25:08;11.60;99.90
7307;DHT22;3694;48.732;9.248;2023-05-16T13:27:44;11.60;99.90
7307;DHT22;3694;48.732;9.248;2023-05-16T13:30:10;11.90;99.90
7307;DHT22;3694;48.732;9.248;2023-05-16T13:32:36;12.10;99.90
7307;DHT22;3694;48.732;9.248;2023-05-16T13:35:02;12.10;99.90
7307;DHT22;3694;48.732;9.248;2023-05-16T13:37:28;12.20;99.90
7307;DHT22;3694;48.732;9.248;2023-05-16T13:39:54;12.20;99.90
7307;DHT22;3694;48.732;9.248;2023-05-16T13:42:20;12.20;99.90
7307;DHT22;3694;48.732;9.248;2023-05-16T13:44:46;12.20;99.90
7307;DHT22;3694;48.732;9.248;2023-05-16T13:47:12;12.50;99.90
7307;DHT22;3694;48.732;9.248;2023-05-16T13:49:37;12.40;99.90
7307;DHT22;3694;48.732;9.248;2023-05-16T13:52:03;12.50;99.90
7307;DHT22;3694;48.732;9.248;2023-05-16T13:54:29;12.60;99.90
7307;DHT22;3694;48.732;9.248;2023-05-16T13:56:54;12.30;99.90
7307;DHT22;3694;48.732;9.248;2023-05-16T13:59:20;12.20;99.90
7307;DHT22;3694;48.732;9.248;2023-05-16T14:01:45;12.20;99.90
7307;DHT22;3694;48.732;9.248;2023-05-16T14:04:11;12.00;99.90
7307;DHT22;3694;48.732;9.248;2023-05-16T14:06:37;11.90;99.90
7307;DHT22;3694;48.732;9.248;2023-05-16T14:09:03;11.70;99.90
7307;DHT22;3694;48.732;9.248;2023-05-16T14:11:29;11.70;99.90
7307;DHT22;3694;48.732;9.248;2023-05-16T14:13:55;11.60;99.90
7307;DHT22;3694;48.732;9.248;2023-05-16T14:16:20;11.50;99.90
7307;DHT22;3694;48.732;9.248;2023-05-16T14:18:46;11.50;99.90
7307;DHT22;3694;48.732;9.248;2023-05-16T14:21:12;11.40;99.90
7307;DHT22;3694;48.732;9.248;2023-05-16T14:23:38;11.30;99.90
7307;DHT22;3694;48.732;9.248;2023-05-16T14:26:04;11.30;99.90
7307;DHT22;3694;48.732;9.248;2023-05-16T14:28:30;11.30;99.90
7307;DHT22;3694;48.732;9.248;2023-05-16T14:30:57;11.30;99.90
7307;DHT22;3694;48.732;9.248;2023-05-16T14:33:23;11.20;99.90
7307;DHT22;3694;48.732;9.248;2023-05-16T14:35:48;11.20;99.90
7307;DHT22;3694;48.732;9.248;2023-05-16T14:38:15;11.30;99.90
7307;DHT22;3694;48.732;9.248;2023-05-16T14:40:40;11.30;99.90
7307;DHT22;3694;48.732;9.248;2023-05-16T14:43:06;11.40;99.90
7307;DHT22;3694;48.732;9.248;2023-05-16T14:45:32;11.40;99.90
7307;DHT22;3694;48.732;9.248;2023-05-16T14:47:57;11.40;99.90
7307;DHT22;3694;48.732;9.248;2023-05-16T14:50:23;11.40;99.90
7307;DHT22;3694;48.732;9.248;2023-05-16T14:52:48;11.40;99.90
7307;DHT22;3694;48.732;9.248;2023-05-16T14:55:14;11.50;99.90
7307;DHT22;3694;48.732;9.248;2023-05-16T14:57:40;11.60;99.90
7307;DHT22;3694;48.732;9.248;2023-05-16T15:00:06;11.90;99.90
7307;DHT22;3694;48.732;9.248;2023-05-16T15:02:32;11.80;99.90
7307;DHT22;3694;48.732;9.248;2023-05-16T15:04:57;11.70;99.90
7307;DHT22;3694;48.732;9.248;2023-05-16T15:07:23;11.80;99.90
7307;DHT22;3694;48.732;9.248;2023-05-16T15:09:51;11.80;99.90
7307;DHT22;3694;48.732;9.248;2023-05-16T15:12:19;11.60;99.90
7307;DHT22;3694;48.732;9.248;2023-05-16T15:14:44;11.60;99.90
7307;DHT22;3694;48.732;9.248;2023-05-16T15:17:10;11.70;99.90
7307;DHT22;3694;48.732;9.248;2023-05-16T15:19:35;11.60;99.90
7307;DHT22;3694;48.732;9.248;2023-05-16T15:22:01;11.60;99.90
7307;DHT22;3694;48.732;9.248;2023-05-16T15:24:27;11.60;99.90
7307;DHT22;3694;48.732;9.248;2023-05-16T15:26:52;11.50;99.90
7307;DHT22;3694;48.732;9.248;2023-05-16T15:29:18;11.50;99.90
7307;DHT22;3694;48.732;9.248;2023-05-16T15:31:44;11.50;99.90
7307;DHT22;3694;48.732;9.248;2023-05-16T15:34:10;11.40;99.90
7307;DHT22;3694;48.732;9.248;2023-05-16T15:36:36;11.30;99.90
7307;DHT22;3694;48.732;9.248;2023-05-16T15:39:02;11.40;99.90
7307;DHT22;3694;48.732;9.248;2023-05-16T15:41:27;11.50;99.90
7307;DHT22;3694;48.732;9.248;2023-05-16T15:43:53;11.50;99.90
7307;DHT22;3694;48.732;9.248;2023-05-16T15:46:18;11.50;99.90
7307;DHT22;3694;48.732;9.248;2023-05-16T15:48:44;11.60;99.90
7307;DHT22;3694;48.732;9.248;2023-05-16T15:51:13;11.60;99.90
7307;DHT22;3694;48.732;9.248;2023-05-16T15:53:40;11.70;99.90
7307;DHT22;3694;48.732;9.248;2023-05-16T15:56:09;11.90;99.90
7307;DHT22;3694;48.732;9.248;2023-05-16T15:58:35;11.90;99.90
7307;DHT22;3694;48.732;9.248;2023-05-16T16:01:01;12.00;99.90
7307;DHT22;3694;48.732;9.248;2023-05-16T16:03:26;11.90;99.90
7307;DHT22;3694;48.732;9.248;2023-05-16T16:05:52;11.90;99.90
7307;DHT22;3694;48.732;9.248;2023-05-16T16:08:23;12.00;99.90
7307;DHT22;3694;48.732;9.248;2023-05-16T16:10:49;11.60;99.90
7307;DHT22;3694;48.732;9.248;2023-05-16T16:13:15;11.60;99.90
7307;DHT22;3694;48.732;9.248;2023-05-16T16:15:41;11.70;99.90
7307;DHT22;3694;48.732;9.248;2023-05-16T16:18:06;11.50;99.90
7307;DHT22;3694;48.732;9.248;2023-05-16T16:20:32;11.50;99.90
7307;DHT22;3694;48.732;9.248;2023-05-16T16:22:58;11.40;99.90
7307;DHT22;3694;48.732;9.248;2023-05-16T16:25:23;11.50;99.90